Brenes, Spain
Current Conditions -  °F | °C
As of 1:00 AM on Sunday 21 Dec 2014 (Local Time) from LEMO Reporting Station
Moderate Fog Moderate Fog  
Wind Chill: 39°   Ceiling: 100
Heat Index: 39°   Visibility: 0.18mi
Dew Point: 39°   Wind: 2mph
Humidity: 100%   Direction: 180°S
Pressure: 30.42"   Gusts: NA
Location:  37.55°N, 5.87°W
Report Text: LEMO 210000Z 18002KT 0300 R02/0500 R20/0800 FG VV001 04/04 Q1030 NOSIG
Loading
Personal Weather Stations






























Interactive Weather Map New forecast layout! Learn more

10-Day Weather Forecast

Advertisements
Track Severe Weather on mobile